Time;durP1;ratioP1;P1;durP2;ratioP2;P2;SDS_P1;SDS_P2;PMS_P1;PMS_P2;Temp;Humidity;BMP_temperature;BMP_pressure;BME280_temperature;BME280_humidity;BME280_pressure;Samples;Min_cycle;Max_cycle;Signal;HPM_P1;HPM_P2
2021/04/29 00:00:52;;;;;;;8.43;4.43;;;;;;;;;;5019262;28;20217;-57
2021/04/29 00:03:20;;;;;;;7.23;4.10;;;;;;;;;;5019962;28;20235;-59
2021/04/29 00:05:46;;;;;;;5.87;4.00;;;;;;;;;;5016320;28;20414;-58
2021/04/29 00:08:13;;;;;;;5.63;4.03;;;;;;;;;;5014779;28;20256;-61
2021/04/29 00:10:39;;;;;;;5.73;3.83;;;;;;;;;;5014632;28;20211;-60
2021/04/29 00:13:06;;;;;;;4.73;3.80;;;;;;;;;;5014801;28;20286;-60
2021/04/29 00:15:32;;;;;;;5.77;4.07;;;;;;;;;;5014860;28;20578;-60
2021/04/29 00:17:59;;;;;;;6.93;3.63;;;;;;;;;;5014611;28;20211;-60
2021/04/29 00:20:26;;;;;;;5.50;4.30;;;;;;;;;;5013958;28;20208;-60
2021/04/29 00:22:52;;;;;;;12.17;4.33;;;;;;;;;;5014423;28;20253;-60
2021/04/29 00:25:19;;;;;;;5.93;4.10;;;;;;;;;;5014446;28;20234;-61
2021/04/29 00:27:46;;;;;;;4.57;3.60;;;;;;;;;;5014674;28;20205;-60
2021/04/29 00:30:13;;;;;;;6.53;3.60;;;;;;;;;;5014262;28;20257;-59
2021/04/29 00:32:39;;;;;;;5.27;3.80;;;;;;;;;;5014559;28;20233;-61
2021/04/29 00:35:07;;;;;;;7.73;4.00;;;;;;;;;;5014218;28;20204;-55
2021/04/29 00:37:34;;;;;;;6.47;3.90;;;;;;;;;;5014067;28;20241;-60
2021/04/29 00:40:01;;;;;;;7.07;3.87;;;;;;;;;;5014111;28;20217;-59
2021/04/29 00:42:27;;;;;;;5.60;3.70;;;;;;;;;;5014295;28;20231;-61
2021/04/29 00:44:54;;;;;;;4.20;3.67;;;;;;;;;;5014008;28;20275;-59
2021/04/29 00:47:20;;;;;;;5.60;3.77;;;;;;;;;;5014256;28;20239;-60
2021/04/29 00:49:47;;;;;;;4.07;3.33;;;;;;;;;;5013704;28;20220;-60
2021/04/29 00:52:14;;;;;;;6.37;4.17;;;;;;;;;;5014302;28;20227;-59
2021/04/29 00:54:41;;;;;;;4.50;3.67;;;;;;;;;;5014162;28;20205;-60
2021/04/29 00:57:07;;;;;;;4.23;3.40;;;;;;;;;;5013983;28;20266;-59
2021/04/29 00:59:34;;;;;;;6.37;4.20;;;;;;;;;;5013823;28;20641;-60
2021/04/29 01:02:01;;;;;;;7.60;4.03;;;;;;;;;;5013676;28;20227;-57
2021/04/29 01:04:32;;;;;;;5.33;3.83;;;;;;;;;;5014189;28;20228;-60
2021/04/29 01:06:59;;;;;;;4.87;3.47;;;;;;;;;;5015419;28;20212;-61
2021/04/29 01:09:28;;;;;;;5.97;3.57;;;;;;;;;;5016426;28;20212;-60
2021/04/29 01:12:00;;;;;;;5.17;3.60;;;;;;;;;;5015600;28;20227;-60
2021/04/29 01:14:27;;;;;;;7.37;3.60;;;;;;;;;;5014472;28;20277;-59
2021/04/29 01:16:53;;;;;;;6.17;3.50;;;;;;;;;;5013728;28;20307;-54
2021/04/29 01:19:21;;;;;;;4.67;3.43;;;;;;;;;;5014365;28;20208;-58
2021/04/29 01:21:48;;;;;;;4.60;3.53;;;;;;;;;;5014833;28;20228;-58
2021/04/29 01:24:16;;;;;;;5.03;3.60;;;;;;;;;;5015407;28;20210;-60
2021/04/29 01:26:48;;;;;;;3.80;3.30;;;;;;;;;;5015273;28;20203;-60
2021/04/29 01:29:17;;;;;;;8.03;3.47;;;;;;;;;;5015507;28;20657;-59
2021/04/29 01:31:44;;;;;;;6.07;3.63;;;;;;;;;;5013209;28;20274;-58
2021/04/29 01:34:13;;;;;;;5.57;3.47;;;;;;;;;;5013521;28;20203;-57
2021/04/29 01:36:40;;;;;;;5.37;3.57;;;;;;;;;;5013432;28;20214;-58
2021/04/29 01:39:08;;;;;;;7.47;3.57;;;;;;;;;;5013446;28;20247;-58
2021/04/29 01:41:37;;;;;;;4.10;3.37;;;;;;;;;;5012876;28;20728;-60
2021/04/29 01:44:06;;;;;;;4.73;3.17;;;;;;;;;;5013166;28;20214;-58
2021/04/29 01:46:33;;;;;;;5.40;3.13;;;;;;;;;;5013108;28;20278;-59
2021/04/29 01:48:59;;;;;;;5.43;3.70;;;;;;;;;;5013216;28;20212;-59
2021/04/29 01:51:26;;;;;;;5.63;3.50;;;;;;;;;;5012829;28;20236;-60
2021/04/29 01:53:52;;;;;;;4.43;3.37;;;;;;;;;;5013043;28;20279;-58
2021/04/29 01:56:19;;;;;;;7.23;3.97;;;;;;;;;;5012857;28;20207;-60
2021/04/29 01:58:46;;;;;;;5.43;4.10;;;;;;;;;;5012662;28;20807;-59
2021/04/29 02:01:13;;;;;;;9.57;3.90;;;;;;;;;;5012745;28;20215;-58
2021/04/29 02:03:40;;;;;;;7.43;3.63;;;;;;;;;;5012746;28;20592;-59
2021/04/29 02:06:06;;;;;;;6.47;4.07;;;;;;;;;;5012619;28;20241;-56
2021/04/29 02:08:33;;;;;;;6.60;3.80;;;;;;;;;;5012566;28;20724;-59
2021/04/29 02:11:01;;;;;;;5.03;3.30;;;;;;;;;;5012305;28;20220;-58
2021/04/29 02:13:28;;;;;;;7.10;4.03;;;;;;;;;;5012245;28;20235;-58
2021/04/29 02:15:57;;;;;;;4.83;3.57;;;;;;;;;;5012756;28;20199;-58
2021/04/29 02:18:24;;;;;;;5.93;3.73;;;;;;;;;;5012687;28;20579;-58
2021/04/29 02:20:52;;;;;;;5.67;3.93;;;;;;;;;;5012441;28;20261;-58
2021/04/29 02:23:20;;;;;;;5.20;3.60;;;;;;;;;;5012583;28;20647;-58
2021/04/29 02:25:47;;;;;;;10.63;3.93;;;;;;;;;;5012270;28;20235;-59
2021/04/29 02:28:15;;;;;;;4.70;4.00;;;;;;;;;;5012628;28;20215;-57
2021/04/29 02:30:42;;;;;;;11.07;4.40;;;;;;;;;;5012281;28;20203;-56
2021/04/29 02:33:08;;;;;;;6.00;4.10;;;;;;;;;;5012290;28;20318;-59
2021/04/29 02:35:36;;;;;;;9.07;4.80;;;;;;;;;;5012178;28;20231;-59
2021/04/29 02:38:03;;;;;;;8.13;4.27;;;;;;;;;;5012452;28;20204;-60
2021/04/29 02:40:30;;;;;;;14.90;4.40;;;;;;;;;;5012355;28;20262;-59
2021/04/29 02:42:56;;;;;;;7.20;5.03;;;;;;;;;;5012099;28;20231;-57
2021/04/29 02:45:23;;;;;;;6.67;4.40;;;;;;;;;;5012189;28;20280;-60
2021/04/29 02:47:51;;;;;;;7.77;5.20;;;;;;;;;;5012269;28;20210;-57
2021/04/29 02:50:18;;;;;;;9.80;5.13;;;;;;;;;;5012094;28;20692;-59
2021/04/29 02:52:46;;;;;;;8.83;5.27;;;;;;;;;;5011921;28;20238;-60
2021/04/29 02:55:13;;;;;;;11.03;5.33;;;;;;;;;;5012349;28;20277;-59
2021/04/29 02:57:40;;;;;;;8.53;6.37;;;;;;;;;;5012169;28;20207;-59
2021/04/29 03:00:10;;;;;;;9.47;6.70;;;;;;;;;;5012075;28;20211;-58
2021/04/29 03:02:38;;;;;;;9.93;6.13;;;;;;;;;;5012051;28;20719;-57
2021/04/29 03:05:05;;;;;;;9.00;7.10;;;;;;;;;;5011787;28;20229;-59
2021/04/29 03:07:32;;;;;;;12.33;7.53;;;;;;;;;;5012020;28;20206;-56
2021/04/29 03:09:59;;;;;;;13.47;7.30;;;;;;;;;;5012082;28;20206;-58
2021/04/29 03:12:26;;;;;;;12.23;8.70;;;;;;;;;;5011911;28;20258;-60
2021/04/29 03:14:53;;;;;;;15.47;9.90;;;;;;;;;;5011935;28;20213;-58
2021/04/29 03:17:19;;;;;;;13.83;9.97;;;;;;;;;;5011907;28;20207;-57
2021/04/29 03:19:46;;;;;;;14.80;8.87;;;;;;;;;;5011451;28;20257;-59
2021/04/29 03:22:12;;;;;;;14.97;8.77;;;;;;;;;;5012055;28;20270;-59
2021/04/29 03:24:39;;;;;;;12.93;8.47;;;;;;;;;;5011954;28;20227;-56
2021/04/29 03:27:07;;;;;;;12.63;8.50;;;;;;;;;;5012146;28;20210;-57
2021/04/29 03:29:33;;;;;;;17.53;9.40;;;;;;;;;;5011911;28;20215;-60
2021/04/29 03:32:00;;;;;;;17.37;9.90;;;;;;;;;;5011760;28;20277;-59
2021/04/29 03:34:26;;;;;;;20.80;10.17;;;;;;;;;;5011778;28;20246;-59
2021/04/29 03:36:53;;;;;;;15.30;10.57;;;;;;;;;;5012256;28;20207;-58
2021/04/29 03:39:19;;;;;;;12.20;9.80;;;;;;;;;;5012036;28;20276;-57
2021/04/29 03:41:46;;;;;;;13.73;9.87;;;;;;;;;;5011583;28;20228;-59
2021/04/29 03:44:13;;;;;;;17.43;10.00;;;;;;;;;;5011890;28;20211;-59
2021/04/29 03:46:40;;;;;;;15.37;10.37;;;;;;;;;;5011564;28;20734;-59
2021/04/29 03:49:06;;;;;;;17.70;10.67;;;;;;;;;;5011505;28;20295;-59
2021/04/29 03:51:33;;;;;;;17.23;10.37;;;;;;;;;;5011608;28;20231;-58
2021/04/29 03:53:59;;;;;;;15.37;10.10;;;;;;;;;;5012582;28;20207;-58
2021/04/29 03:56:26;;;;;;;14.33;10.07;;;;;;;;;;5015240;28;20210;-58
2021/04/29 03:58:52;;;;;;;12.47;9.70;;;;;;;;;;5015263;28;20257;-60
2021/04/29 04:01:20;;;;;;;16.77;9.33;;;;;;;;;;5014934;28;20207;-58
2021/04/29 04:03:46;;;;;;;15.13;10.53;;;;;;;;;;5015001;28;20326;-57
2021/04/29 04:06:13;;;;;;;13.57;9.67;;;;;;;;;;5014847;28;20234;-58
2021/04/29 04:08:39;;;;;;;18.03;9.53;;;;;;;;;;5015144;28;20211;-60
2021/04/29 04:11:06;;;;;;;16.53;10.73;;;;;;;;;;5014441;28;20253;-60
2021/04/29 04:13:32;;;;;;;17.87;10.27;;;;;;;;;;5013142;28;20288;-57
2021/04/29 04:15:59;;;;;;;17.57;11.17;;;;;;;;;;5014705;28;20209;-56
2021/04/29 04:18:26;;;;;;;16.60;10.50;;;;;;;;;;5014128;28;20293;-58
2021/04/29 04:20:53;;;;;;;17.93;10.80;;;;;;;;;;5009298;28;20222;-58
2021/04/29 04:23:19;;;;;;;14.93;10.37;;;;;;;;;;4999290;28;20226;-59
2021/04/29 04:25:46;;;;;;;20.50;11.07;;;;;;;;;;5012240;28;20699;-60
2021/04/29 04:28:12;;;;;;;19.53;11.30;;;;;;;;;;5014519;28;20663;-60
2021/04/29 04:30:39;;;;;;;16.93;11.07;;;;;;;;;;5014215;28;20215;-59
2021/04/29 04:33:06;;;;;;;15.40;9.83;;;;;;;;;;5014735;28;20238;-58
2021/04/29 04:35:33;;;;;;;15.60;10.70;;;;;;;;;;5014811;28;20210;-52
2021/04/29 04:38:00;;;;;;;17.13;10.53;;;;;;;;;;5014285;28;20625;-54
2021/04/29 04:40:26;;;;;;;16.87;10.67;;;;;;;;;;5014165;28;20698;-58
2021/04/29 04:42:53;;;;;;;16.13;11.27;;;;;;;;;;5016033;28;20227;-60
2021/04/29 04:45:19;;;;;;;15.37;11.40;;;;;;;;;;5014300;28;20630;-58
2021/04/29 04:47:47;;;;;;;14.13;10.43;;;;;;;;;;5014342;28;20250;-58
2021/04/29 04:50:14;;;;;;;16.13;10.63;;;;;;;;;;5014062;28;20218;-57
2021/04/29 04:52:41;;;;;;;14.73;10.83;;;;;;;;;;5014686;28;20230;-59
2021/04/29 04:55:08;;;;;;;18.20;11.77;;;;;;;;;;5017003;28;20211;-58
2021/04/29 04:57:35;;;;;;;17.47;11.57;;;;;;;;;;5017045;28;20207;-59
2021/04/29 05:00:01;;;;;;;18.37;12.40;;;;;;;;;;5014866;28;20557;-56
2021/04/29 05:02:28;;;;;;;19.43;13.67;;;;;;;;;;5013824;28;20234;-60
2021/04/29 05:04:55;;;;;;;23.63;13.00;;;;;;;;;;5013592;28;20884;-59
2021/04/29 05:07:21;;;;;;;20.33;14.10;;;;;;;;;;5013865;28;20210;-59
2021/04/29 05:09:48;;;;;;;23.73;14.07;;;;;;;;;;5013548;28;20214;-59
2021/04/29 05:12:15;;;;;;;25.10;16.17;;;;;;;;;;5013209;28;20313;-58
2021/04/29 05:14:41;;;;;;;21.73;16.00;;;;;;;;;;5013853;28;20233;-60
2021/04/29 05:17:08;;;;;;;29.30;16.20;;;;;;;;;;5013650;28;20206;-63
2021/04/29 05:19:34;;;;;;;27.27;17.40;;;;;;;;;;5013964;28;20238;-61
2021/04/29 05:22:01;;;;;;;29.23;16.47;;;;;;;;;;5012310;28;20235;-60
2021/04/29 05:24:28;;;;;;;27.57;17.87;;;;;;;;;;5013063;28;20626;-58
2021/04/29 05:26:55;;;;;;;32.23;18.73;;;;;;;;;;5012147;28;20286;-61
2021/04/29 05:29:22;;;;;;;27.13;17.87;;;;;;;;;;5012815;28;20217;-61
2021/04/29 05:31:48;;;;;;;29.77;18.03;;;;;;;;;;5011478;28;20891;-64
2021/04/29 05:34:15;;;;;;;28.10;18.03;;;;;;;;;;5012859;28;20214;-62
2021/04/29 05:36:41;;;;;;;25.97;17.23;;;;;;;;;;5012865;28;20207;-65
2021/04/29 05:39:08;;;;;;;29.93;18.17;;;;;;;;;;5012822;28;20211;-64
2021/04/29 05:41:34;;;;;;;33.70;18.90;;;;;;;;;;5012068;28;20296;-64
2021/04/29 05:44:02;;;;;;;29.13;19.30;;;;;;;;;;5012690;28;20745;-67
2021/04/29 05:46:28;;;;;;;28.57;19.67;;;;;;;;;;5012586;28;20231;-66
2021/04/29 05:48:55;;;;;;;34.30;20.10;;;;;;;;;;5012695;28;20616;-70
2021/04/29 05:51:21;;;;;;;36.40;20.50;;;;;;;;;;5012028;28;20211;-68
2021/04/29 05:53:48;;;;;;;30.00;18.80;;;;;;;;;;5012724;28;20211;-68
2021/04/29 05:56:15;;;;;;;30.67;18.93;;;;;;;;;;5012451;28;20203;-68
2021/04/29 05:58:42;;;;;;;28.27;19.10;;;;;;;;;;5012760;28;20207;-67
2021/04/29 06:01:10;;;;;;;31.83;20.50;;;;;;;;;;5012058;28;20598;-67
2021/04/29 06:03:37;;;;;;;35.30;20.00;;;;;;;;;;5012247;28;20580;-66
2021/04/29 06:06:04;;;;;;;31.70;21.23;;;;;;;;;;5012127;28;20277;-67
2021/04/29 06:08:30;;;;;;;36.10;20.87;;;;;;;;;;5012090;28;20210;-65
2021/04/29 06:10:57;;;;;;;29.77;19.30;;;;;;;;;;5012403;28;20215;-66
2021/04/29 06:13:23;;;;;;;35.63;21.70;;;;;;;;;;5012617;28;20260;-63
2021/04/29 06:15:50;;;;;;;33.33;22.57;;;;;;;;;;5012382;28;20211;-63
2021/04/29 06:18:17;;;;;;;31.00;22.07;;;;;;;;;;5011739;28;20234;-63
2021/04/29 06:20:44;;;;;;;33.83;22.17;;;;;;;;;;5011626;28;20583;-64
2021/04/29 06:23:10;;;;;;;36.87;22.97;;;;;;;;;;5011709;28;20227;-64
2021/04/29 06:25:37;;;;;;;34.83;22.70;;;;;;;;;;5012113;28;20613;-64
2021/04/29 06:28:03;;;;;;;39.40;23.27;;;;;;;;;;5012218;28;20211;-63
2021/04/29 06:30:30;;;;;;;45.40;24.33;;;;;;;;;;5011072;28;20210;-58
2021/04/29 06:32:56;;;;;;;46.30;25.03;;;;;;;;;;5011786;28;20230;-64
2021/04/29 06:35:24;;;;;;;40.20;24.33;;;;;;;;;;5011702;28;20207;-63
2021/04/29 06:37:50;;;;;;;34.60;23.97;;;;;;;;;;5011862;28;20280;-65
2021/04/29 06:40:17;;;;;;;42.73;26.23;;;;;;;;;;5011494;28;20683;-63
2021/04/29 06:42:43;;;;;;;34.30;24.93;;;;;;;;;;5011959;28;20242;-64
2021/04/29 06:45:11;;;;;;;35.73;23.93;;;;;;;;;;5011905;28;20234;-64
2021/04/29 06:47:37;;;;;;;34.40;24.00;;;;;;;;;;5012726;28;20207;-66
2021/04/29 06:50:04;;;;;;;37.17;24.70;;;;;;;;;;5031103;28;20214;-66
2021/04/29 06:52:32;;;;;;;36.53;24.40;;;;;;;;;;5031831;28;20252;-67
2021/04/29 06:54:58;;;;;;;33.57;24.47;;;;;;;;;;5031840;28;20595;-66
2021/04/29 06:57:25;;;;;;;36.90;24.63;;;;;;;;;;5031685;28;20213;-66
2021/04/29 06:59:51;;;;;;;40.03;24.03;;;;;;;;;;5031208;28;20204;-62
2021/04/29 07:02:18;;;;;;;39.07;25.27;;;;;;;;;;5031300;28;20707;-61
2021/04/29 07:04:44;;;;;;;35.27;24.57;;;;;;;;;;5032225;28;20210;-61
2021/04/29 07:07:11;;;;;;;34.70;25.00;;;;;;;;;;5032316;28;20426;-59
2021/04/29 07:09:38;;;;;;;34.67;22.90;;;;;;;;;;5031423;28;20215;-66
2021/04/29 07:12:05;;;;;;;39.33;23.83;;;;;;;;;;5031194;28;20243;-65
2021/04/29 07:14:31;;;;;;;34.67;23.87;;;;;;;;;;5031377;28;20206;-65
2021/04/29 07:16:58;;;;;;;36.77;22.93;;;;;;;;;;5031406;28;20219;-65
2021/04/29 07:19:24;;;;;;;33.90;23.47;;;;;;;;;;5030975;28;20663;-65
2021/04/29 07:21:51;;;;;;;31.13;19.60;;;;;;;;;;5030807;28;20244;-65
2021/04/29 07:24:17;;;;;;;35.43;23.03;;;;;;;;;;5031318;28;20280;-64
2021/04/29 07:26:45;;;;;;;29.30;21.20;;;;;;;;;;5031351;28;20712;-66
2021/04/29 07:29:11;;;;;;;31.53;22.27;;;;;;;;;;5032387;28;20212;-65
2021/04/29 07:31:39;;;;;;;30.17;21.50;;;;;;;;;;5034474;28;20237;-66
2021/04/29 07:34:05;;;;;;;34.10;23.03;;;;;;;;;;5034422;28;20673;-64
2021/04/29 07:36:32;;;;;;;36.20;22.83;;;;;;;;;;5034956;28;20256;-64
2021/04/29 07:38:59;;;;;;;32.07;21.67;;;;;;;;;;5034806;28;20308;-64
2021/04/29 07:41:28;;;;;;;28.07;19.17;;;;;;;;;;5034252;28;20234;-63
2021/04/29 07:43:56;;;;;;;31.93;21.50;;;;;;;;;;5029897;28;20202;-64
2021/04/29 07:46:23;;;;;;;33.40;22.13;;;;;;;;;;5007045;28;20238;-63
2021/04/29 07:48:49;;;;;;;33.30;22.60;;;;;;;;;;5015377;28;20260;-63
2021/04/29 07:51:16;;;;;;;37.60;22.43;;;;;;;;;;5014374;28;20264;-63
2021/04/29 07:53:43;;;;;;;34.33;23.93;;;;;;;;;;5014978;28;20209;-62
2021/04/29 07:56:09;;;;;;;38.00;24.50;;;;;;;;;;5014975;28;20211;-61
2021/04/29 07:58:36;;;;;;;35.03;23.87;;;;;;;;;;5014830;28;20220;-60
2021/04/29 08:01:03;;;;;;;30.60;23.20;;;;;;;;;;5013998;28;20722;-62
2021/04/29 08:03:30;;;;;;;32.93;24.17;;;;;;;;;;5014780;28;20257;-60
2021/04/29 08:05:56;;;;;;;35.60;23.67;;;;;;;;;;5014651;28;20227;-62
2021/04/29 08:08:23;;;;;;;38.27;25.53;;;;;;;;;;5014540;28;20238;-63
2021/04/29 08:10:49;;;;;;;42.43;24.60;;;;;;;;;;5014219;28;20205;-60
2021/04/29 08:13:16;;;;;;;41.87;26.37;;;;;;;;;;5014316;28;20241;-62
2021/04/29 08:15:43;;;;;;;33.40;23.37;;;;;;;;;;5013998;28;20205;-66
2021/04/29 08:18:11;;;;;;;37.53;26.00;;;;;;;;;;5014904;28;20290;-66
2021/04/29 08:20:38;;;;;;;47.67;26.70;;;;;;;;;;5013979;28;20669;-66
2021/04/29 08:23:05;;;;;;;36.23;26.67;;;;;;;;;;5014593;28;20237;-67
2021/04/29 08:25:31;;;;;;;42.00;27.90;;;;;;;;;;5014391;28;20292;-67
2021/04/29 08:27:58;;;;;;;44.17;29.33;;;;;;;;;;5014585;28;20257;-62
2021/04/29 08:30:27;;;;;;;53.67;32.67;;;;;;;;;;5013599;28;20208;-61
2021/04/29 08:32:53;;;;;;;55.40;35.87;;;;;;;;;;5014016;28;20228;-66
2021/04/29 08:35:21;;;;;;;50.00;34.10;;;;;;;;;;5015506;28;20206;-67
2021/04/29 08:37:48;;;;;;;52.70;35.47;;;;;;;;;;5016772;28;20676;-68
2021/04/29 08:40:15;;;;;;;60.83;40.20;;;;;;;;;;5016550;28;20205;-67
2021/04/29 08:42:42;;;;;;;52.50;36.67;;;;;;;;;;5013686;28;20301;-67
2021/04/29 08:45:09;;;;;;;56.47;38.20;;;;;;;;;;5013788;28;20223;-67
2021/04/29 08:47:36;;;;;;;63.33;36.57;;;;;;;;;;5013907;28;20208;-68
2021/04/29 08:50:02;;;;;;;57.93;37.73;;;;;;;;;;5013203;28;20218;-64
2021/04/29 08:52:30;;;;;;;55.20;37.23;;;;;;;;;;5013560;28;20650;-67
2021/04/29 08:54:57;;;;;;;55.60;36.30;;;;;;;;;;5013553;28;20224;-68
2021/04/29 08:57:23;;;;;;;56.67;35.77;;;;;;;;;;5013405;28;20203;-67
2021/04/29 08:59:52;;;;;;;59.40;36.87;;;;;;;;;;5013300;28;20213;-68
2021/04/29 09:02:18;;;;;;;65.47;36.87;;;;;;;;;;5013470;28;20273;-68
2021/04/29 09:04:45;;;;;;;51.73;37.13;;;;;;;;;;5013284;28;20664;-67
2021/04/29 09:07:12;;;;;;;70.30;35.80;;;;;;;;;;5013405;28;20223;-67
2021/04/29 09:09:42;;;;;;;61.37;37.10;;;;;;;;;;5013147;28;20212;-67
2021/04/29 09:12:08;;;;;;;52.60;33.67;;;;;;;;;;5013080;28;20815;-70
2021/04/29 09:14:36;;;;;;;52.93;36.23;;;;;;;;;;5013293;28;20209;-68
2021/04/29 09:17:03;;;;;;;59.67;35.77;;;;;;;;;;5013600;28;20210;-69
2021/04/29 09:19:32;;;;;;;60.77;35.77;;;;;;;;;;5013258;28;20208;-68
2021/04/29 09:21:59;;;;;;;53.70;33.20;;;;;;;;;;5012717;28;20318;-67
2021/04/29 09:24:32;;;;;;;49.50;34.07;;;;;;;;;;5012762;28;20213;-69
2021/04/29 09:27:09;;;;;;;41.97;27.57;;;;;;;;;;5013277;28;20276;-67
2021/04/29 09:29:35;;;;;;;45.87;31.47;;;;;;;;;;5012903;28;20218;-63
2021/04/29 09:32:02;;;;;;;44.87;29.60;;;;;;;;;;5012825;28;20226;-61
2021/04/29 09:34:37;;;;;;;42.10;29.97;;;;;;;;;;5012765;28;20266;-68
2021/04/29 09:37:04;;;;;;;43.57;30.30;;;;;;;;;;5012835;28;20216;-67
2021/04/29 09:39:33;;;;;;;42.00;27.90;;;;;;;;;;5013024;28;20591;-67
2021/04/29 09:42:00;;;;;;;42.73;28.13;;;;;;;;;;5012601;28;20230;-70
2021/04/29 09:44:28;;;;;;;40.53;26.23;;;;;;;;;;5012899;28;20240;-68
2021/04/29 09:46:56;;;;;;;40.63;27.77;;;;;;;;;;5012865;28;20258;-67
2021/04/29 09:49:23;;;;;;;42.13;28.97;;;;;;;;;;5012406;28;20649;-68
2021/04/29 09:51:50;;;;;;;37.30;27.50;;;;;;;;;;5011565;28;20230;-67
2021/04/29 09:54:27;;;;;;;44.90;30.47;;;;;;;;;;5013044;28;20219;-67
2021/04/29 09:56:54;;;;;;;38.47;22.60;;;;;;;;;;5012804;28;20222;-69
2021/04/29 09:59:20;;;;;;;38.17;26.13;;;;;;;;;;5012336;28;20208;-67
2021/04/29 10:01:48;;;;;;;27.40;19.23;;;;;;;;;;5011753;28;20229;-68
2021/04/29 10:04:14;;;;;;;29.20;18.07;;;;;;;;;;5012506;28;20356;-66
2021/04/29 10:06:42;;;;;;;33.27;18.57;;;;;;;;;;5012369;28;20238;-65
2021/04/29 10:09:08;;;;;;;30.53;20.33;;;;;;;;;;5012403;28;20249;-65
2021/04/29 10:11:35;;;;;;;29.03;20.53;;;;;;;;;;5011970;28;20227;-66
2021/04/29 10:14:02;;;;;;;33.00;20.73;;;;;;;;;;5012218;28;20635;-65
2021/04/29 10:16:29;;;;;;;29.57;20.37;;;;;;;;;;5012004;28;20573;-65
2021/04/29 10:18:57;;;;;;;32.60;22.17;;;;;;;;;;5012462;28;20207;-67
2021/04/29 10:21:24;;;;;;;29.40;22.00;;;;;;;;;;5011838;28;20210;-68
2021/04/29 10:23:51;;;;;;;29.77;21.50;;;;;;;;;;5012494;28;20207;-65
2021/04/29 10:26:27;;;;;;;28.50;20.57;;;;;;;;;;5012247;28;20269;-71
2021/04/29 10:28:57;;;;;;;31.17;19.97;;;;;;;;;;5012686;28;20211;-67
2021/04/29 10:31:25;;;;;;;27.53;18.87;;;;;;;;;;5012039;28;20255;-69
2021/04/29 10:33:53;;;;;;;32.10;20.80;;;;;;;;;;5012437;28;20207;-72
2021/04/29 10:36:21;;;;;;;27.43;19.20;;;;;;;;;;5012315;28;20294;-71
2021/04/29 10:38:49;;;;;;;27.43;19.90;;;;;;;;;;5012225;28;20207;-71
2021/04/29 10:41:23;;;;;;;22.47;17.30;;;;;;;;;;5011197;28;20290;-68
2021/04/29 10:43:50;;;;;;;52.63;18.33;;;;;;;;;;5012234;28;20238;-70
2021/04/29 10:46:31;;;;;;;33.83;16.57;;;;;;;;;;5012040;28;20729;-68
2021/04/29 10:49:02;;;;;;;30.30;18.87;;;;;;;;;;5011947;28;20214;-68
2021/04/29 10:51:33;;;;;;;22.17;15.73;;;;;;;;;;5011597;28;20231;-67
2021/04/29 10:54:10;;;;;;;27.83;18.33;;;;;;;;;;5011836;28;20214;-67
2021/04/29 10:56:37;;;;;;;22.90;16.40;;;;;;;;;;5012030;28;20264;-66
2021/04/29 10:59:10;;;;;;;25.10;16.40;;;;;;;;;;5012174;28;20209;-65
2021/04/29 11:01:44;;;;;;;21.63;14.53;;;;;;;;;;5012188;28;20638;-66
2021/04/29 11:04:17;;;;;;;19.17;12.77;;;;;;;;;;5015139;28;20212;-65
2021/04/29 11:06:45;;;;;;;24.77;16.53;;;;;;;;;;5015995;28;20227;-68
2021/04/29 11:09:18;;;;;;;24.90;16.60;;;;;;;;;;5015649;28;20618;-68
2021/04/29 11:11:45;;;;;;;25.77;17.43;;;;;;;;;;5015253;28;20227;-68
2021/04/29 11:14:13;;;;;;;31.83;18.17;;;;;;;;;;5015753;28;20208;-68
2021/04/29 11:16:43;;;;;;;24.70;17.13;;;;;;;;;;5015587;28;20213;-70
2021/04/29 11:19:10;;;;;;;23.57;17.27;;;;;;;;;;5015818;28;20234;-65
2021/04/29 11:21:36;;;;;;;27.20;17.27;;;;;;;;;;5015253;28;20230;-69
2021/04/29 11:24:04;;;;;;;27.87;18.53;;;;;;;;;;5015678;28;20237;-70
2021/04/29 11:26:35;;;;;;;23.60;18.00;;;;;;;;;;5015175;28;20604;-74
2021/04/29 11:29:01;;;;;;;31.87;17.03;;;;;;;;;;5015497;28;20218;-71
2021/04/29 11:31:38;;;;;;;31.13;17.70;;;;;;;;;;5014814;28;20259;-71
2021/04/29 11:34:04;;;;;;;25.27;18.20;;;;;;;;;;5015598;28;20285;-69
2021/04/29 11:36:31;;;;;;;28.10;19.37;;;;;;;;;;5015494;28;20207;-69
2021/04/29 11:38:58;;;;;;;31.13;19.03;;;;;;;;;;5015544;28;20372;-68
2021/04/29 11:41:27;;;;;;;22.70;16.43;;;;;;;;;;5014445;28;20207;-67
2021/04/29 11:43:57;;;;;;;20.83;15.07;;;;;;;;;;5014878;28;20207;-69
2021/04/29 11:46:24;;;;;;;23.30;16.50;;;;;;;;;;5014924;28;20227;-69
2021/04/29 11:48:57;;;;;;;25.67;15.37;;;;;;;;;;5015579;28;20203;-67
2021/04/29 11:51:23;;;;;;;26.50;15.93;;;;;;;;;;5014734;28;20231;-68
2021/04/29 11:53:50;;;;;;;23.50;15.60;;;;;;;;;;5014748;28;20623;-66
2021/04/29 11:56:17;;;;;;;25.23;16.00;;;;;;;;;;5015391;28;20213;-66
2021/04/29 11:58:45;;;;;;;21.70;15.23;;;;;;;;;;5014674;28;20214;-65
2021/04/29 12:01:15;;;;;;;32.80;18.70;;;;;;;;;;5017578;28;20211;-66
2021/04/29 12:03:42;;;;;;;30.23;17.17;;;;;;;;;;5017536;28;20290;-67
2021/04/29 12:06:09;;;;;;;28.50;19.03;;;;;;;;;;5014910;28;20648;-67
2021/04/29 12:08:36;;;;;;;21.70;17.10;;;;;;;;;;5015093;28;20622;-66
2021/04/29 12:11:04;;;;;;;22.23;16.00;;;;;;;;;;5014402;28;20864;-69
2021/04/29 12:13:31;;;;;;;21.17;16.67;;;;;;;;;;5018624;28;20242;-68
2021/04/29 12:15:59;;;;;;;20.67;15.13;;;;;;;;;;5016621;28;20207;-68
2021/04/29 12:18:25;;;;;;;22.17;15.20;;;;;;;;;;5015231;28;20209;-69
2021/04/29 12:20:52;;;;;;;18.23;14.50;;;;;;;;;;5013871;28;20562;-68
2021/04/29 12:23:19;;;;;;;17.20;13.33;;;;;;;;;;5014396;28;20229;-66
2021/04/29 12:25:56;;;;;;;19.20;14.63;;;;;;;;;;5013952;28;20284;-72
2021/04/29 12:28:22;;;;;;;16.43;12.80;;;;;;;;;;5014446;28;20212;-66
2021/04/29 12:30:49;;;;;;;19.13;14.80;;;;;;;;;;5013834;28;20216;-67
2021/04/29 12:33:17;;;;;;;22.23;14.43;;;;;;;;;;5014235;28;20235;-68
2021/04/29 12:35:43;;;;;;;17.53;14.30;;;;;;;;;;5013911;28;20269;-68
2021/04/29 12:38:11;;;;;;;20.37;12.60;;;;;;;;;;5014327;28;20206;-68
2021/04/29 12:40:37;;;;;;;16.27;12.23;;;;;;;;;;5014274;28;20203;-68
2021/04/29 12:43:11;;;;;;;23.90;12.73;;;;;;;;;;5013927;28;20232;-69
2021/04/29 12:45:45;;;;;;;15.60;12.10;;;;;;;;;;5014079;28;20238;-69
2021/04/29 12:48:11;;;;;;;15.77;8.93;;;;;;;;;;5014318;28;20278;-64
2021/04/29 12:50:39;;;;;;;13.80;8.77;;;;;;;;;;5013390;28;20203;-67
2021/04/29 12:53:05;;;;;;;13.70;10.93;;;;;;;;;;5014077;28;20232;-67
2021/04/29 12:55:40;;;;;;;19.30;10.37;;;;;;;;;;5013933;28;20207;-69
2021/04/29 12:58:07;;;;;;;11.90;9.30;;;;;;;;;;5013909;28;20598;-69
2021/04/29 13:00:34;;;;;;;17.20;9.17;;;;;;;;;;5013508;28;20205;-68
2021/04/29 13:03:02;;;;;;;11.63;8.97;;;;;;;;;;5013339;28;20234;-68
2021/04/29 13:05:28;;;;;;;12.30;8.00;;;;;;;;;;5014114;28;20220;-67
2021/04/29 13:07:59;;;;;;;8.90;8.00;;;;;;;;;;5013755;28;20212;-68
2021/04/29 13:10:25;;;;;;;12.43;8.50;;;;;;;;;;5013448;28;20207;-67
2021/04/29 13:12:52;;;;;;;11.93;8.10;;;;;;;;;;5013138;28;20739;-67
2021/04/29 13:15:19;;;;;;;8.43;7.53;;;;;;;;;;5013394;28;20207;-67
2021/04/29 13:17:46;;;;;;;10.03;7.67;;;;;;;;;;5012974;28;20207;-67
2021/04/29 13:20:16;;;;;;;10.13;7.53;;;;;;;;;;5012976;28;20211;-69
2021/04/29 13:22:42;;;;;;;14.10;7.70;;;;;;;;;;5013200;28;20277;-69
2021/04/29 13:25:12;;;;;;;11.63;8.37;;;;;;;;;;5012927;28;20672;-65
2021/04/29 13:27:38;;;;;;;12.33;8.03;;;;;;;;;;5013080;28;20261;-65
2021/04/29 13:30:05;;;;;;;10.83;8.40;;;;;;;;;;5012584;28;20203;-67
2021/04/29 13:32:32;;;;;;;13.17;9.63;;;;;;;;;;5013341;28;20234;-67
2021/04/29 13:34:59;;;;;;;14.50;9.53;;;;;;;;;;5013734;28;20207;-67
2021/04/29 13:37:25;;;;;;;12.03;9.73;;;;;;;;;;5013272;28;20199;-67
2021/04/29 13:39:52;;;;;;;17.00;11.93;;;;;;;;;;5012671;28;20206;-66
2021/04/29 13:42:19;;;;;;;20.63;11.33;;;;;;;;;;5012666;28;20711;-68
2021/04/29 13:44:46;;;;;;;13.73;9.57;;;;;;;;;;5012495;28;20217;-67
2021/04/29 13:47:12;;;;;;;17.40;11.77;;;;;;;;;;5012755;28;20237;-67
2021/04/29 13:49:39;;;;;;;15.50;12.73;;;;;;;;;;5012689;28;20206;-67
2021/04/29 13:52:06;;;;;;;17.07;11.20;;;;;;;;;;5018189;28;20226;-66
2021/04/29 13:54:33;;;;;;;18.87;12.23;;;;;;;;;;5032242;28;20698;-66
2021/04/29 13:56:59;;;;;;;12.63;9.27;;;;;;;;;;5032352;28;20207;-66
2021/04/29 13:59:27;;;;;;;16.83;12.10;;;;;;;;;;5002989;28;20212;-66
2021/04/29 14:01:53;;;;;;;19.77;13.87;;;;;;;;;;5012944;28;20602;-66
2021/04/29 14:04:20;;;;;;;21.10;15.67;;;;;;;;;;5012608;28;20691;-67
2021/04/29 14:06:46;;;;;;;16.27;11.17;;;;;;;;;;5012996;28;20235;-63
2021/04/29 14:09:13;;;;;;;24.20;16.57;;;;;;;;;;5012753;28;20211;-63
2021/04/29 14:11:43;;;;;;;17.27;13.50;;;;;;;;;;5011907;28;20230;-62
2021/04/29 14:14:09;;;;;;;16.97;13.10;;;;;;;;;;5012569;28;20210;-65
2021/04/29 14:16:37;;;;;;;17.03;12.53;;;;;;;;;;5012734;28;20207;-64
2021/04/29 14:19:03;;;;;;;20.37;14.83;;;;;;;;;;5012931;28;20206;-66
2021/04/29 14:21:30;;;;;;;21.13;15.83;;;;;;;;;;5012622;28;20227;-62
2021/04/29 14:23:56;;;;;;;19.80;14.97;;;;;;;;;;5013241;28;20214;-63